Time;durP1;ratioP1;P1;durP2;ratioP2;P2;SDS_P1;SDS_P2;PMS_P1;PMS_P2;Temp;Humidity;BMP_temperature;BMP_pressure;BME280_temperature;BME280_humidity;BME280_pressure;Samples;Min_cycle;Max_cycle;Signal;HPM_P1;HPM_P2
2023/07/09 00:04:41;;;;;;;9.32;7.53;;;;;;;22.71;49.81;100626.81;10436052;28;20045;-75
2023/07/09 00:09:44;;;;;;;10.50;7.75;;;;;;;22.62;50.04;100628.00;10441809;28;20079;-75
2023/07/09 00:14:47;;;;;;;9.48;7.68;;;;;;;22.51;49.92;100626.63;10438372;28;20041;-73
2023/07/09 00:19:52;;;;;;;10.52;7.60;;;;;;;22.42;50.53;100616.84;10438700;28;20060;-74
2023/07/09 00:24:56;;;;;;;9.18;6.70;;;;;;;22.46;49.82;100621.75;10438981;28;20033;-74
2023/07/09 00:30:00;;;;;;;7.40;6.35;;;;;;;22.39;49.59;100625.44;10437557;28;20049;-74
2023/07/09 00:35:05;;;;;;;10.02;6.40;;;;;;;22.40;49.65;100627.97;10441516;28;20040;-74
2023/07/09 00:40:18;;;;;;;8.82;6.45;;;;;;;22.43;49.86;100626.72;10435888;28;20051;-74
2023/07/09 00:45:23;;;;;;;9.73;7.05;;;;;;;22.39;49.48;100639.13;10429743;28;20572;-75
2023/07/09 00:50:35;;;;;;;17.35;6.68;;;;;;;22.28;49.94;100626.81;10437502;28;20049;-76
2023/07/09 00:55:43;;;;;;;8.23;6.27;;;;;;;22.30;49.93;100628.31;10436870;28;20072;-75
2023/07/09 01:00:52;;;;;;;10.13;6.90;;;;;;;22.30;49.44;100642.00;10438070;28;20291;-76
2023/07/09 01:05:58;;;;;;;10.32;6.40;;;;;;;22.27;49.64;100642.38;10435202;28;20045;-75
2023/07/09 01:11:02;;;;;;;8.82;6.68;;;;;;;22.30;49.09;100642.00;10443289;28;20112;-76
2023/07/09 01:16:06;;;;;;;7.88;6.85;;;;;;;22.16;50.03;100645.66;10434179;28;20064;-73
2023/07/09 01:21:15;;;;;;;7.57;6.32;;;;;;;21.90;50.88;100627.03;10434249;28;20120;-74
2023/07/09 01:26:20;;;;;;;8.35;6.72;;;;;;;21.87;50.52;100627.44;10439029;28;20087;-75
2023/07/09 01:31:24;;;;;;;10.63;6.85;;;;;;;21.87;50.21;100636.47;10438655;28;20045;-75
2023/07/09 01:36:28;;;;;;;11.55;7.35;;;;;;;21.82;50.61;100632.63;10431070;28;20040;-75
2023/07/09 01:41:34;;;;;;;7.03;6.15;;;;;;;21.77;51.01;100633.19;10433741;28;20061;-75
2023/07/09 01:46:37;;;;;;;7.55;6.50;;;;;;;21.48;52.23;100630.50;10433232;28;20112;-75
2023/07/09 01:51:42;;;;;;;8.18;6.63;;;;;;;21.34;53.16;100630.31;10430971;28;20050;-75
2023/07/09 01:56:44;;;;;;;6.45;5.85;;;;;;;21.45;52.85;100621.63;10434214;28;20044;-74
2023/07/09 02:01:47;;;;;;;13.10;7.60;;;;;;;21.49;52.43;100621.25;10428940;28;20037;-76
2023/07/09 02:06:51;;;;;;;13.13;6.95;;;;;;;21.37;52.87;100620.91;10425844;28;20080;-75
2023/07/09 02:11:55;;;;;;;16.30;7.57;;;;;;;21.32;53.15;100626.09;10431706;28;20060;-75
2023/07/09 02:16:57;;;;;;;11.85;7.05;;;;;;;21.29;53.35;100615.53;10428617;28;20110;-74
2023/07/09 02:22:02;;;;;;;9.88;7.22;;;;;;;21.14;53.46;100612.78;10430555;28;20151;-75
2023/07/09 02:27:06;;;;;;;9.43;7.95;;;;;;;20.90;54.26;100611.13;10425671;28;20037;-75
2023/07/09 02:32:11;;;;;;;9.38;7.10;;;;;;;20.77;54.46;100617.25;10427589;28;20033;-74
2023/07/09 02:37:17;;;;;;;8.50;7.22;;;;;;;20.74;54.29;100613.00;10439916;28;20037;-75
2023/07/09 02:42:23;;;;;;;9.13;7.30;;;;;;;20.06;56.54;100625.66;10437314;28;20045;-75
2023/07/09 02:47:26;;;;;;;8.55;6.80;;;;;;;19.95;57.53;100620.59;10435725;28;20053;-74
2023/07/09 02:52:33;;;;;;;8.48;7.15;;;;;;;20.02;57.20;100628.91;10423134;28;20046;-75
2023/07/09 02:57:36;;;;;;;9.93;6.93;;;;;;;20.11;56.61;100633.28;10436036;28;20055;-77
2023/07/09 03:02:39;;;;;;;12.10;8.00;;;;;;;19.92;57.68;100641.94;10438705;28;20049;-75
2023/07/09 03:07:44;;;;;;;10.82;7.13;;;;;;;19.94;57.82;100638.00;10453414;28;20114;-74
2023/07/09 03:12:46;;;;;;;9.43;7.10;;;;;;;20.13;56.93;100640.25;10448982;28;20057;-74
2023/07/09 03:17:49;;;;;;;11.50;7.25;;;;;;;20.23;56.53;100647.34;10448565;28;20045;-75
2023/07/09 03:22:53;;;;;;;9.52;6.60;;;;;;;19.71;57.94;100654.28;10437310;28;20068;-74
2023/07/09 03:27:56;;;;;;;8.43;6.32;;;;;;;19.64;58.33;100659.63;10439482;28;20045;-75
2023/07/09 03:33:00;;;;;;;7.53;6.72;;;;;;;19.79;58.05;100667.88;10437739;28;20095;-75
2023/07/09 03:38:04;;;;;;;11.45;7.22;;;;;;;20.03;57.92;100658.72;10437987;28;20045;-75
2023/07/09 03:43:09;;;;;;;7.15;6.28;;;;;;;20.16;57.45;100654.53;10431338;28;20041;-75
2023/07/09 03:48:12;;;;;;;8.07;7.28;;;;;;;20.26;57.31;100655.16;10438323;28;20122;-75
2023/07/09 03:53:17;;;;;;;9.30;6.72;;;;;;;20.09;57.29;100658.00;10434828;28;20048;-74
2023/07/09 03:58:20;;;;;;;11.27;7.35;;;;;;;20.24;56.94;100657.22;10438327;28;20063;-75
2023/07/09 04:03:23;;;;;;;8.60;6.82;;;;;;;20.28;57.14;100647.66;10436353;28;20470;-74
2023/07/09 04:08:27;;;;;;;10.93;7.25;;;;;;;20.31;56.95;100647.31;10433100;28;20052;-75
2023/07/09 04:13:30;;;;;;;11.75;7.78;;;;;;;20.27;56.72;100645.97;10434008;28;20088;-75
2023/07/09 04:18:33;;;;;;;9.23;7.45;;;;;;;20.23;56.74;100648.19;10438707;28;20106;-74
2023/07/09 04:23:37;;;;;;;8.32;6.95;;;;;;;20.22;56.67;100651.97;10439718;28;20402;-73
2023/07/09 04:28:40;;;;;;;10.13;8.07;;;;;;;20.27;56.74;100649.53;10436724;28;20515;-76
2023/07/09 04:33:46;;;;;;;10.90;7.28;;;;;;;20.30;56.89;100651.91;10426738;28;20081;-75
2023/07/09 04:38:50;;;;;;;9.18;6.90;;;;;;;20.35;57.19;100648.66;10441528;28;20065;-75
2023/07/09 04:43:53;;;;;;;8.43;7.00;;;;;;;20.41;56.92;100639.75;10437062;28;20523;-75
2023/07/09 04:48:55;;;;;;;10.25;7.80;;;;;;;20.52;57.25;100641.19;10439009;28;20045;-76
2023/07/09 04:54:00;;;;;;;13.88;7.82;;;;;;;20.55;56.79;100647.13;10426724;28;20048;-76
2023/07/09 04:59:02;;;;;;;11.93;7.60;;;;;;;20.65;56.93;100638.69;10429232;28;20049;-76
2023/07/09 05:04:06;;;;;;;9.80;7.50;;;;;;;20.68;56.69;100643.78;10434350;28;20043;-75
2023/07/09 05:09:11;;;;;;;10.13;7.07;;;;;;;20.66;55.20;100642.28;10435407;28;20056;-75
2023/07/09 05:14:13;;;;;;;9.77;7.15;;;;;;;20.76;54.69;100649.16;10444605;28;20093;-75
2023/07/09 05:19:16;;;;;;;11.20;6.55;;;;;;;20.96;54.04;100649.47;10445710;28;20707;-76
2023/07/09 05:24:20;;;;;;;8.25;6.47;;;;;;;21.08;53.88;100649.06;10434239;28;20043;-75
2023/07/09 05:29:24;;;;;;;7.75;6.10;;;;;;;21.35;53.15;100658.47;10431586;28;20056;-74
2023/07/09 05:34:27;;;;;;;10.45;6.45;;;;;;;21.49;52.62;100649.44;10436671;28;20048;-74
2023/07/09 05:39:32;;;;;;;7.45;6.20;;;;;;;21.76;51.90;100655.28;10441645;28;20114;-74
2023/07/09 05:44:34;;;;;;;7.05;6.28;;;;;;;21.83;52.87;100661.66;10432659;28;20514;-73
2023/07/09 05:49:39;;;;;;;7.85;6.65;;;;;;;22.03;52.50;100656.44;10429529;28;20136;-74
2023/07/09 05:54:43;;;;;;;6.55;5.88;;;;;;;22.04;52.36;100660.84;10430145;28;20045;-75
2023/07/09 05:59:46;;;;;;;6.65;5.82;;;;;;;22.06;52.51;100661.53;10436566;28;20611;-74
2023/07/09 06:04:49;;;;;;;7.13;6.20;;;;;;;22.14;52.62;100666.88;10437539;28;20044;-74
2023/07/09 06:09:54;;;;;;;7.35;6.15;;;;;;;22.21;52.56;100670.50;10441535;28;20041;-75
2023/07/09 06:14:57;;;;;;;8.30;5.82;;;;;;;22.20;52.46;100670.72;10434961;28;20067;-74
2023/07/09 06:20:00;;;;;;;6.97;6.15;;;;;;;22.36;52.90;100673.19;10443062;28;20052;-73
2023/07/09 06:25:04;;;;;;;10.57;6.53;;;;;;;22.45;52.09;100665.75;10447404;28;20048;-74
2023/07/09 06:30:09;;;;;;;8.23;5.85;;;;;;;22.74;52.27;100667.50;10444341;28;20040;-75
2023/07/09 06:35:11;;;;;;;10.52;7.18;;;;;;;23.23;51.65;100673.97;10443096;28;20095;-75
2023/07/09 06:40:16;;;;;;;9.35;7.20;;;;;;;23.59;50.56;100666.41;10435358;28;20044;-75
2023/07/09 06:45:19;;;;;;;8.80;5.82;;;;;;;23.92;50.42;100673.13;10444096;28;20048;-75
2023/07/09 06:50:22;;;;;;;9.90;6.22;;;;;;;24.13;49.46;100692.16;10443924;28;20497;-75
2023/07/09 06:55:26;;;;;;;9.23;6.05;;;;;;;24.40;49.98;100692.25;10445120;28;20416;-74
2023/07/09 07:00:29;;;;;;;10.60;6.18;;;;;;;24.58;48.75;100673.28;10440277;28;20045;-74
2023/07/09 07:05:32;;;;;;;7.75;5.80;;;;;;;24.48;47.49;100681.91;10439296;28;20488;-75
2023/07/09 07:10:37;;;;;;;6.25;5.65;;;;;;;24.81;48.35;100683.84;10449386;28;20052;-75
2023/07/09 07:15:49;;;;;;;9.30;6.60;;;;;;;25.16;47.62;100680.91;10444079;28;20049;-74
2023/07/09 07:20:53;;;;;;;8.85;6.20;;;;;;;25.41;48.12;100679.16;10452496;28;20037;-75
2023/07/09 07:25:57;;;;;;;8.55;6.50;;;;;;;25.83;47.63;100682.41;10447225;28;20071;-77
2023/07/09 07:31:01;;;;;;;7.07;6.07;;;;;;;26.57;46.53;100684.78;10447399;28;20140;-76
2023/07/09 07:36:05;;;;;;;9.00;5.65;;;;;;;27.75;44.48;100675.63;10439642;28;20074;-76
2023/07/09 07:41:29;;;;;;;9.75;6.32;;;;;;;29.01;42.25;100678.47;10444118;28;20091;-76
2023/07/09 07:46:33;;;;;;;7.90;5.85;;;;;;;29.65;39.72;100670.28;10446835;28;20033;-75
2023/07/09 07:51:37;;;;;;;8.93;6.07;;;;;;;30.24;39.12;100680.09;10452359;28;20194;-76
2023/07/09 07:56:41;;;;;;;9.27;5.35;;;;;;;30.83;37.64;100678.94;10444654;28;20040;-73
2023/07/09 08:01:44;;;;;;;6.78;5.65;;;;;;;30.83;38.06;100678.94;10444576;28;20049;-74
2023/07/09 08:06:47;;;;;;;6.82;6.13;;;;;;;30.85;38.18;100672.00;10450174;28;20104;-74
2023/07/09 08:11:51;;;;;;;6.80;5.50;;;;;;;30.45;38.91;100666.63;10449456;28;20069;-73
2023/07/09 08:16:54;;;;;;;11.10;6.05;;;;;;;30.29;39.16;100667.44;10445902;28;20515;-74
2023/07/09 08:21:57;;;;;;;8.52;6.10;;;;;;;30.20;39.04;100658.69;10446910;28;20041;-74
2023/07/09 08:27:03;;;;;;;11.25;6.40;;;;;;;30.34;39.72;100662.81;10447600;28;20044;-75
2023/07/09 08:32:07;;;;;;;10.18;6.30;;;;;;;30.52;38.46;100663.66;10450348;28;20068;-74
2023/07/09 08:37:10;;;;;;;5.80;5.25;;;;;;;30.87;38.04;100663.47;10447246;28;20458;-74
2023/07/09 08:42:18;;;;;;;8.18;6.43;;;;;;;30.97;37.32;100663.63;10442817;28;20068;-74
2023/07/09 08:47:30;;;;;;;6.63;5.97;;;;;;;31.24;37.15;100654.59;10428286;28;20593;-76
2023/07/09 08:52:37;;;;;;;7.40;5.50;;;;;;;31.39;37.57;100651.22;10438412;28;20047;-76
2023/07/09 08:57:44;;;;;;;8.07;6.10;;;;;;;31.45;38.01;100647.41;10444393;28;20404;-75
2023/07/09 09:02:52;;;;;;;10.00;6.03;;;;;;;32.00;37.09;100655.59;10447712;28;20037;-75
2023/07/09 09:07:58;;;;;;;9.18;6.40;;;;;;;31.74;37.20;100661.97;10443261;28;20092;-75
2023/07/09 09:13:15;;;;;;;7.07;5.57;;;;;;;31.93;37.33;100663.31;10438449;28;20040;-76
2023/07/09 09:18:21;;;;;;;7.90;6.00;;;;;;;32.01;36.81;100665.63;10441899;28;20048;-75
2023/07/09 09:23:29;;;;;;;9.80;5.43;;;;;;;32.15;37.95;100654.94;10434124;28;20068;-75
2023/07/09 09:28:37;;;;;;;10.32;6.13;;;;;;;32.62;35.49;100654.28;10422782;28;20463;-75
2023/07/09 09:33:42;;;;;;;7.53;5.45;;;;;;;32.48;35.83;100653.06;10416978;28;20060;-75
2023/07/09 09:38:45;;;;;;;6.80;5.70;;;;;;;33.14;34.76;100655.56;10414873;28;20117;-75
2023/07/09 09:43:52;;;;;;;6.10;5.47;;;;;;;33.64;35.10;100648.59;10417822;28;20078;-75
2023/07/09 09:48:57;;;;;;;7.47;5.82;;;;;;;33.78;34.86;100646.13;10418008;28;20041;-75
2023/07/09 09:54:01;;;;;;;7.10;5.80;;;;;;;33.86;33.65;100656.75;10421017;28;20045;-75
2023/07/09 09:59:06;;;;;;;8.23;5.97;;;;;;;33.62;33.97;100645.22;10410378;28;20040;-75
2023/07/09 10:04:17;;;;;;;8.50;6.00;;;;;;;34.08;34.75;100638.97;10396664;28;20489;-75
2023/07/09 10:09:28;;;;;;;9.80;6.10;;;;;;;34.38;33.99;100646.56;10411868;28;20114;-75
2023/07/09 10:14:43;;;;;;;7.72;6.25;;;;;;;34.43;33.35;100652.16;10403151;28;20042;-75
2023/07/09 10:19:54;;;;;;;6.85;6.13;;;;;;;34.33;33.65;100649.34;10404518;28;20049;-74
2023/07/09 10:25:03;;;;;;;8.35;6.43;;;;;;;34.93;32.85;100656.06;10396225;28;20052;-75
2023/07/09 10:30:36;;;;;;;8.23;6.43;;;;;;;35.16;34.17;100649.06;10395835;28;20054;-75
2023/07/09 10:35:48;;;;;;;8.45;6.22;;;;;;;35.34;32.18;100649.56;10389452;28;20125;-75
2023/07/09 10:40:55;;;;;;;7.53;6.70;;;;;;;35.37;32.66;100640.63;10389608;28;20500;-75
2023/07/09 10:46:04;;;;;;;9.10;6.78;;;;;;;35.61;32.83;100640.84;10388326;28;20042;-75
2023/07/09 10:51:19;;;;;;;7.80;6.50;;;;;;;35.94;31.57;100642.91;10378108;28;20069;-75
2023/07/09 10:56:27;;;;;;;8.68;6.25;;;;;;;35.76;32.52;100634.34;10393503;28;20042;-75
2023/07/09 11:01:35;;;;;;;6.95;6.25;;;;;;;36.39;32.06;100637.31;10402685;28;20049;-75
2023/07/09 11:06:43;;;;;;;8.18;5.80;;;;;;;36.72;32.10;100638.44;10406884;28;20642;-75
2023/07/09 11:11:50;;;;;;;9.40;6.60;;;;;;;36.81;31.51;100639.50;10408044;28;20750;-75
2023/07/09 11:16:57;;;;;;;8.57;5.90;;;;;;;36.58;31.92;100627.09;10405406;28;20049;-74
2023/07/09 11:22:07;;;;;;;9.25;6.40;;;;;;;36.91;31.87;100620.94;10449319;28;20044;-75
2023/07/09 11:27:19;;;;;;;8.70;6.32;;;;;;;37.03;31.37;100616.59;10459305;28;20037;-75
2023/07/09 11:32:24;;;;;;;9.57;6.47;;;;;;;37.03;32.18;100615.78;10451814;28;20037;-75
2023/07/09 11:37:27;;;;;;;9.50;6.55;;;;;;;37.24;30.26;100616.41;10453562;28;20550;-75
2023/07/09 11:42:32;;;;;;;9.68;6.30;;;;;;;37.38;29.72;100600.53;10447031;28;21232;-75
2023/07/09 11:47:41;;;;;;;6.85;6.15;;;;;;;37.53;30.39;100604.28;10440588;28;20401;-75
2023/07/09 11:52:56;;;;;;;10.27;6.32;;;;;;;38.51;30.02;100599.75;10443544;28;20048;-75
2023/07/09 11:58:02;;;;;;;9.98;6.35;;;;;;;38.28;29.32;100601.50;10450811;28;20042;-75
2023/07/09 12:03:10;;;;;;;8.55;6.30;;;;;;;38.01;29.50;100602.19;10450055;28;20049;-75
2023/07/09 12:08:17;;;;;;;8.93;6.57;;;;;;;38.32;29.30;100602.56;10438888;28;20042;-75
2023/07/09 12:13:19;;;;;;;7.05;5.55;;;;;;;38.94;28.42;100593.91;10445941;28;20131;-75
2023/07/09 12:18:24;;;;;;;6.47;5.38;;;;;;;39.24;28.59;100588.81;10451499;28;20120;-75
2023/07/09 12:23:30;;;;;;;10.82;5.93;;;;;;;39.22;27.61;100569.50;10447827;28;20072;-75
2023/07/09 12:28:33;;;;;;;7.97;5.70;;;;;;;39.00;26.96;100552.53;10441300;28;20048;-75
2023/07/09 12:33:38;;;;;;;9.35;6.32;;;;;;;39.34;26.79;100551.28;10449224;28;20048;-75
2023/07/09 12:38:43;;;;;;;8.75;5.90;;;;;;;39.48;26.89;100540.03;10451190;28;20047;-76
2023/07/09 12:43:46;;;;;;;17.67;6.22;;;;;;;40.04;26.26;100528.28;10448225;28;20084;-75
2023/07/09 12:48:51;;;;;;;7.57;5.57;;;;;;;39.85;26.41;100524.84;10446618;28;20119;-75
2023/07/09 12:54:12;;;;;;;9.25;6.18;;;;;;;39.56;26.77;100523.25;10442606;28;20049;-75
2023/07/09 12:59:18;;;;;;;11.02;5.97;;;;;;;38.94;26.25;100515.31;10440729;28;20519;-74
2023/07/09 13:04:28;;;;;;;8.80;5.70;;;;;;;38.97;25.53;100508.25;10446040;28;20041;-75
2023/07/09 13:09:31;;;;;;;7.35;5.90;;;;;;;39.70;26.10;100488.66;10448431;28;20041;-75
2023/07/09 13:14:34;;;;;;;8.98;5.97;;;;;;;39.68;26.29;100484.16;10443265;28;20385;-74
2023/07/09 13:19:38;;;;;;;8.18;5.43;;;;;;;39.88;25.99;100496.94;10430454;28;20048;-75
2023/07/09 13:24:41;;;;;;;8.50;5.47;;;;;;;39.52;25.57;100490.47;10415856;28;20049;-75
2023/07/09 13:29:45;;;;;;;8.88;5.63;;;;;;;39.99;26.17;100491.03;10412277;28;20048;-75
2023/07/09 13:34:49;;;;;;;7.13;5.65;;;;;;;40.03;26.08;100478.00;10424654;28;20120;-75
2023/07/09 13:39:52;;;;;;;6.32;5.30;;;;;;;39.51;26.71;100491.63;10419558;28;20116;-75
2023/07/09 13:44:56;;;;;;;10.98;5.05;;;;;;;38.71;25.91;100491.06;10406952;28;20041;-75
2023/07/09 13:50:03;;;;;;;10.18;5.07;;;;;;;38.62;25.94;100481.69;10414812;28;20068;-76
2023/07/09 13:55:11;;;;;;;5.07;4.53;;;;;;;38.87;26.56;100481.19;10412078;28;20049;-76
2023/07/09 14:00:15;;;;;;;9.90;5.47;;;;;;;39.67;26.86;100478.88;10409115;28;20481;-76
2023/07/09 14:05:20;;;;;;;8.85;5.80;;;;;;;40.25;25.55;100469.53;10399227;28;20117;-75
2023/07/09 14:10:25;;;;;;;7.07;5.10;;;;;;;40.24;25.82;100472.69;10398631;28;20057;-75
2023/07/09 14:15:28;;;;;;;6.57;5.03;;;;;;;40.23;23.54;100463.41;10393346;28;20046;-75
2023/07/09 14:20:32;;;;;;;4.38;3.72;;;;;;;39.54;22.06;100457.28;10427309;28;20116;-75
2023/07/09 14:25:35;;;;;;;9.02;5.45;;;;;;;40.09;23.82;100451.41;10433614;28;20493;-76
2023/07/09 14:30:39;;;;;;;7.72;4.53;;;;;;;39.57;24.01;100457.47;10448200;28;20053;-76
2023/07/09 14:35:44;;;;;;;6.47;5.05;;;;;;;39.46;25.34;100454.06;10450608;28;20045;-76
2023/07/09 14:40:48;;;;;;;6.85;5.22;;;;;;;39.95;24.28;100436.59;10455185;28;20049;-75
2023/07/09 14:45:51;;;;;;;9.25;5.57;;;;;;;39.94;24.87;100435.78;10452417;28;20383;-76
2023/07/09 14:50:56;;;;;;;9.27;4.50;;;;;;;39.88;22.39;100429.47;10451147;28;20049;-77
2023/07/09 14:55:58;;;;;;;7.60;4.13;;;;;;;39.92;25.38;100418.38;10451258;28;20088;-77
2023/07/09 15:01:02;;;;;;;7.35;4.50;;;;;;;39.76;23.77;100400.25;10448654;28;20488;-76
2023/07/09 15:06:07;;;;;;;8.85;5.40;;;;;;;38.85;25.96;100407.69;10451391;28;20033;-76
2023/07/09 15:11:10;;;;;;;7.28;4.80;;;;;;;38.32;25.57;100413.81;10451909;28;20072;-76
2023/07/09 15:16:13;;;;;;;8.82;5.20;;;;;;;37.41;27.94;100409.50;10451305;28;20112;-76
2023/07/09 15:21:18;;;;;;;9.00;6.30;;;;;;;36.94;29.33;100402.03;10451323;28;20498;-76
2023/07/09 15:26:21;;;;;;;7.97;5.57;;;;;;;36.34;30.85;100396.84;10450697;28;20482;-77
2023/07/09 15:31:24;;;;;;;11.15;5.25;;;;;;;35.84;31.28;100401.81;10445744;28;20068;-76
2023/07/09 15:36:29;;;;;;;7.97;5.90;;;;;;;35.63;31.84;100406.75;10456610;28;20063;-76
2023/07/09 15:41:32;;;;;;;7.78;5.97;;;;;;;35.04;32.63;100395.41;10449468;28;20091;-77
2023/07/09 15:46:35;;;;;;;15.30;6.13;;;;;;;34.77;33.50;100389.38;10452721;28;20041;-75
2023/07/09 15:51:39;;;;;;;14.93;6.32;;;;;;;34.37;34.74;100416.28;10446762;28;20085;-75
2023/07/09 15:56:43;;;;;;;9.73;6.60;;;;;;;33.95;34.93;100403.50;10462123;28;20554;-75
2023/07/09 16:01:46;;;;;;;7.90;6.30;;;;;;;33.80;35.64;100421.09;10457138;28;20040;-75
2023/07/09 16:06:50;;;;;;;11.43;7.07;;;;;;;33.55;35.51;100414.38;10450558;28;20111;-75
2023/07/09 16:11:54;;;;;;;14.50;8.48;;;;;;;33.32;36.01;100415.75;10448331;28;20068;-75
2023/07/09 16:17:00;;;;;;;13.77;9.25;;;;;;;33.25;36.61;100422.69;10442227;28;20045;-75
2023/07/09 16:22:07;;;;;;;22.95;7.32;;;;;;;32.88;40.38;100432.84;10420637;28;20111;-75
2023/07/09 16:27:15;;;;;;;21.77;8.63;;;;;;;32.43;41.17;100416.75;10422884;28;20040;-75
2023/07/09 16:32:18;;;;;;;12.77;9.52;;;;;;;32.30;39.95;100408.88;10417149;28;20879;-75
2023/07/09 16:37:24;;;;;;;14.82;9.13;;;;;;;32.30;39.48;100406.94;10420007;28;20099;-75
2023/07/09 16:42:27;;;;;;;14.95;9.52;;;;;;;32.26;39.03;100410.53;10417585;28;20041;-75
2023/07/09 16:47:31;;;;;;;14.45;8.15;;;;;;;32.17;39.49;100393.50;10417454;28;20045;-75
2023/07/09 16:52:36;;;;;;;15.13;7.50;;;;;;;32.02;39.30;100383.94;10404049;28;20080;-75
2023/07/09 16:57:39;;;;;;;13.68;8.23;;;;;;;31.98;39.63;100376.41;10399238;28;20068;-75
2023/07/09 17:02:42;;;;;;;22.02;7.65;;;;;;;31.60;39.81;100375.56;10400510;28;20429;-77
2023/07/09 17:07:46;;;;;;;17.45;7.10;;;;;;;31.09;40.93;100375.03;10399206;28;20041;-76
2023/07/09 17:12:55;;;;;;;26.67;8.80;;;;;;;29.47;48.94;100456.28;10401721;28;20421;-76
2023/07/09 17:17:58;;;;;;;12.98;5.78;;;;;;;27.61;47.81;100454.22;10400908;28;20492;-75
2023/07/09 17:23:03;;;;;;;9.05;4.20;;;;;;;26.18;51.38;100499.53;10439499;28;20106;-76
2023/07/09 17:28:15;;;;;;;11.85;5.03;;;;;;;24.02;66.46;100583.00;10427927;28;20037;-75
2023/07/09 17:33:19;;;;;;;18.30;6.25;;;;;;;20.05;100.00;100721.28;10429886;28;20045;-74
2023/07/09 17:38:27;;;;;;;32.10;10.40;;;;;;;19.45;100.00;100704.44;10436642;28;20037;-74
2023/07/09 17:43:30;;;;;;;12.98;6.75;;;;;;;19.27;100.00;100610.38;10442011;28;20049;-73
2023/07/09 17:48:36;;;;;;;12.15;7.60;;;;;;;19.53;100.00;100599.16;10441511;28;20037;-73
2023/07/09 17:53:40;;;;;;;15.25;8.45;;;;;;;20.04;100.00;100589.53;10430446;28;20045;-74
2023/07/09 17:58:43;;;;;;;11.35;8.13;;;;;;;20.08;99.60;100664.50;10437036;28;20072;-73
2023/07/09 18:03:46;;;;;;;10.63;7.90;;;;;;;20.31;99.29;100664.53;10450231;28;20044;-73
2023/07/09 18:08:51;;;;;;;15.43;8.38;;;;;;;20.60;97.91;100709.34;10449802;28;20047;-75
2023/07/09 18:13:54;;;;;;;9.05;7.85;;;;;;;20.41;97.38;100836.19;10456818;28;20049;-74
2023/07/09 18:19:02;;;;;;;12.45;7.97;;;;;;;20.59;97.54;100824.16;10447623;28;20458;-74
2023/07/09 18:24:06;;;;;;;17.52;8.23;;;;;;;20.51;95.64;100850.44;10451140;28;20045;-74
2023/07/09 18:29:22;;;;;;;11.88;6.90;;;;;;;20.78;96.12;100843.63;10451703;28;20049;-75
2023/07/09 18:34:25;;;;;;;14.50;7.35;;;;;;;20.89;95.24;100822.41;10453345;28;20051;-75
2023/07/09 18:39:29;;;;;;;13.45;7.38;;;;;;;21.02;96.85;100785.28;10453446;28;20039;-75
2023/07/09 18:44:32;;;;;;;11.77;7.35;;;;;;;21.11;99.71;100745.09;10448421;28;20052;-76
2023/07/09 18:49:35;;;;;;;15.25;8.07;;;;;;;21.11;100.00;100693.22;10448311;28;20098;-75
2023/07/09 18:54:39;;;;;;;20.35;8.05;;;;;;;21.56;100.00;100631.25;10452841;28;20136;-75
2023/07/09 18:59:42;;;;;;;11.07;8.25;;;;;;;21.67;98.51;100515.09;10451270;28;20554;-74
2023/07/09 19:04:46;;;;;;;9.13;7.68;;;;;;;21.49;96.94;100570.19;10449632;28;20052;-74
2023/07/09 19:09:50;;;;;;;12.18;7.13;;;;;;;21.36;98.29;100562.66;10445974;28;20099;-74
2023/07/09 19:14:53;;;;;;;11.07;7.03;;;;;;;20.98;96.59;100529.13;10445221;28;20044;-73
2023/07/09 19:19:56;;;;;;;11.68;7.28;;;;;;;21.16;98.49;100494.13;10437516;28;20037;-73
2023/07/09 19:25:00;;;;;;;13.82;6.10;;;;;;;21.24;98.27;100465.84;10424333;28;20041;-73
2023/07/09 19:30:03;;;;;;;10.50;6.88;;;;;;;21.29;98.45;100460.66;10417199;28;20704;-74
2023/07/09 19:35:06;;;;;;;10.68;6.40;;;;;;;21.25;98.19;100451.13;10395983;28;20042;-75
2023/07/09 19:40:19;;;;;;;10.93;5.72;;;;;;;21.32;98.08;100465.72;10397400;28;20045;-74
2023/07/09 19:45:23;;;;;;;;;;;;;;;21.20;97.67;100472.72;10399572;28;20565;-74
2023/07/09 19:50:29;;;;;;;8.05;5.47;;;;;;;21.15;98.40;100484.25;10409960;28;19929;-73
2023/07/09 19:55:34;;;;;;;11.13;5.05;;;;;;;21.05;98.48;100500.06;10398129;28;20079;-74
2023/07/09 20:00:37;;;;;;;8.73;5.13;;;;;;;20.31;94.27;100500.03;10400204;28;20080;-75
2023/07/09 20:05:40;;;;;;;8.45;6.10;;;;;;;20.11;95.86;100540.59;10397623;28;20069;-75
2023/07/09 20:10:44;;;;;;;11.00;6.55;;;;;;;20.47;97.96;100540.78;10416297;28;20037;-74
2023/07/09 20:15:47;;;;;;;10.73;6.20;;;;;;;20.78;97.57;100561.63;10417426;28;20053;-73
2023/07/09 20:20:52;;;;;;;8.85;6.57;;;;;;;21.00;97.93;100573.50;10413876;28;20121;-73
2023/07/09 20:25:57;;;;;;;12.43;6.88;;;;;;;21.10;96.76;100593.22;10407139;28;20040;-74
2023/07/09 20:31:00;;;;;;;8.05;6.93;;;;;;;21.11;96.39;100589.44;10416639;28;20033;-72
2023/07/09 20:36:03;;;;;;;8.13;7.20;;;;;;;20.83;96.16;100580.19;10414489;28;20056;-73
2023/07/09 20:41:17;;;;;;;11.95;6.82;;;;;;;21.01;94.45;100591.59;10411686;28;20136;-74
2023/07/09 20:46:20;;;;;;;8.48;7.40;;;;;;;21.01;95.72;100584.22;10402962;28;20041;-73
2023/07/09 20:51:23;;;;;;;12.00;7.20;;;;;;;21.15;96.32;100579.00;10399687;28;20036;-75
2023/07/09 20:56:28;;;;;;;11.35;7.30;;;;;;;21.11;93.40;100574.94;10406994;28;20497;-74
2023/07/09 21:01:31;;;;;;;10.93;7.18;;;;;;;20.81;94.23;100576.78;10396200;28;20172;-76
2023/07/09 21:06:34;;;;;;;9.80;6.78;;;;;;;20.83;95.47;100589.19;10397819;28;20045;-76
2023/07/09 21:11:38;;;;;;;10.98;7.43;;;;;;;20.99;96.12;100580.00;10390659;28;20041;-76
2023/07/09 21:16:43;;;;;;;10.77;8.07;;;;;;;20.49;93.43;100585.13;10387556;28;20046;-75
2023/07/09 21:21:46;;;;;;;10.13;6.78;;;;;;;20.67;94.91;100581.19;10424342;28;20049;-76
2023/07/09 21:26:51;;;;;;;13.10;7.55;;;;;;;20.74;93.46;100599.38;10437544;28;20037;-76
2023/07/09 21:31:56;;;;;;;14.65;7.97;;;;;;;20.62;95.31;100605.44;10439390;28;20036;-76
2023/07/09 21:37:01;;;;;;;9.60;7.38;;;;;;;20.74;95.41;100607.56;10439165;28;20053;-74
2023/07/09 21:42:06;;;;;;;8.60;7.10;;;;;;;20.86;96.20;100605.22;10429556;28;20496;-75
2023/07/09 21:47:14;;;;;;;12.20;8.95;;;;;;;20.84;93.30;100611.88;10429364;28;20116;-76
2023/07/09 21:52:18;;;;;;;9.95;8.07;;;;;;;20.73;95.00;100613.19;10448870;28;20044;-75
2023/07/09 21:57:23;;;;;;;11.65;7.75;;;;;;;19.76;94.60;100630.09;10438579;28;20041;-76
2023/07/09 22:02:30;;;;;;;10.02;8.10;;;;;;;19.94;95.16;100618.94;10446163;28;20120;-76
2023/07/09 22:07:33;;;;;;;10.27;7.70;;;;;;;20.44;96.30;100611.25;10426712;28;20107;-75
2023/07/09 22:12:37;;;;;;;11.23;8.35;;;;;;;20.55;92.29;100606.19;10431625;28;20044;-75
2023/07/09 22:17:40;;;;;;;10.05;8.45;;;;;;;20.65;95.21;100603.22;10437715;28;20061;-75
2023/07/09 22:22:43;;;;;;;11.85;8.20;;;;;;;20.77;95.25;100595.41;10436827;28;20047;-77
2023/07/09 22:27:48;;;;;;;17.55;9.68;;;;;;;20.75;95.23;100590.13;10437298;28;20127;-75
2023/07/09 22:32:53;;;;;;;15.30;8.43;;;;;;;20.70;91.64;100600.75;10432268;28;20040;-75
2023/07/09 22:37:58;;;;;;;15.98;8.43;;;;;;;20.00;92.94;100601.84;10441231;28;20076;-75
2023/07/09 22:43:02;;;;;;;20.48;9.50;;;;;;;19.33;93.64;100599.59;10440108;28;20500;-76
2023/07/09 22:48:06;;;;;;;13.85;8.45;;;;;;;19.68;94.51;100583.81;10439551;28;20044;-76
2023/07/09 22:53:13;;;;;;;17.67;9.57;;;;;;;20.22;95.35;100583.78;10440882;28;20047;-76
2023/07/09 22:58:20;;;;;;;21.30;9.85;;;;;;;20.44;94.54;100579.34;10430134;28;20555;-75
2023/07/09 23:03:29;;;;;;;15.40;11.38;;;;;;;20.41;91.33;100595.25;10444603;28;20029;-75
2023/07/09 23:08:32;;;;;;;19.40;10.10;;;;;;;20.56;95.11;100582.47;10442786;28;20559;-74
2023/07/09 23:13:37;;;;;;;19.60;9.63;;;;;;;20.72;94.18;100586.94;10440385;28;20052;-75
2023/07/09 23:18:40;;;;;;;15.48;9.90;;;;;;;20.71;94.53;100577.06;10447670;28;20060;-76